sensor_id;sensor_type;location;lat;lon;timestamp;temperature;humidity
78028;DHT22;74605;45.864;11.474;2024-03-02T00:01:25;7.80;82.50
78028;DHT22;74605;45.864;11.474;2024-03-02T00:03:50;7.70;82.80
78028;DHT22;74605;45.864;11.474;2024-03-02T00:06:20;7.80;82.90
78028;DHT22;74605;45.864;11.474;2024-03-02T00:08:47;7.70;83.00
78028;DHT22;74605;45.864;11.474;2024-03-02T00:11:13;7.90;83.00
78028;DHT22;74605;45.864;11.474;2024-03-02T00:13:40;7.80;82.90
78028;DHT22;74605;45.864;11.474;2024-03-02T00:16:07;7.70;82.80
78028;DHT22;74605;45.864;11.474;2024-03-02T00:18:34;7.50;83.00
78028;DHT22;74605;45.864;11.474;2024-03-02T00:21:01;7.60;83.00
78028;DHT22;74605;45.864;11.474;2024-03-02T00:23:30;7.50;83.20
78028;DHT22;74605;45.864;11.474;2024-03-02T00:25:57;7.60;83.00
78028;DHT22;74605;45.864;11.474;2024-03-02T00:28:33;7.50;83.20
78028;DHT22;74605;45.864;11.474;2024-03-02T00:31:09;7.50;83.00
78028;DHT22;74605;45.864;11.474;2024-03-02T00:33:48;7.60;83.00
78028;DHT22;74605;45.864;11.474;2024-03-02T00:36:15;7.50;83.10
78028;DHT22;74605;45.864;11.474;2024-03-02T00:38:44;7.40;83.10
78028;DHT22;74605;45.864;11.474;2024-03-02T00:41:25;7.50;83.30
78028;DHT22;74605;45.864;11.474;2024-03-02T00:46:26;7.50;83.30
78028;DHT22;74605;45.864;11.474;2024-03-02T00:48:55;7.50;83.50
78028;DHT22;74605;45.864;11.474;2024-03-02T00:51:22;7.60;83.20
78028;DHT22;74605;45.864;11.474;2024-03-02T00:53:49;7.40;83.10
78028;DHT22;74605;45.864;11.474;2024-03-02T00:56:16;7.40;83.40
78028;DHT22;74605;45.864;11.474;2024-03-02T00:58:42;7.50;83.40
78028;DHT22;74605;45.864;11.474;2024-03-02T01:01:08;7.60;83.40
78028;DHT22;74605;45.864;11.474;2024-03-02T01:03:35;7.60;83.00
78028;DHT22;74605;45.864;11.474;2024-03-02T01:06:03;7.50;83.00
78028;DHT22;74605;45.864;11.474;2024-03-02T01:08:29;7.40;83.10
78028;DHT22;74605;45.864;11.474;2024-03-02T01:10:55;7.60;83.20
78028;DHT22;74605;45.864;11.474;2024-03-02T01:13:22;7.60;83.40
78028;DHT22;74605;45.864;11.474;2024-03-02T01:15:49;7.50;83.00
78028;DHT22;74605;45.864;11.474;2024-03-02T01:18:15;7.30;83.20
78028;DHT22;74605;45.864;11.474;2024-03-02T01:20:41;7.30;83.20
78028;DHT22;74605;45.864;11.474;2024-03-02T01:23:07;7.40;83.30
78028;DHT22;74605;45.864;11.474;2024-03-02T01:25:33;7.50;83.10
78028;DHT22;74605;45.864;11.474;2024-03-02T01:27:59;7.30;83.40
78028;DHT22;74605;45.864;11.474;2024-03-02T01:30:25;7.40;83.30
78028;DHT22;74605;45.864;11.474;2024-03-02T01:32:51;7.20;83.00
78028;DHT22;74605;45.864;11.474;2024-03-02T01:35:17;7.30;83.10
78028;DHT22;74605;45.864;11.474;2024-03-02T01:37:43;7.20;83.10
78028;DHT22;74605;45.864;11.474;2024-03-02T01:40:09;6.80;83.40
78028;DHT22;74605;45.864;11.474;2024-03-02T01:42:39;7.20;83.70
78028;DHT22;74605;45.864;11.474;2024-03-02T01:45:06;7.20;83.50
78028;DHT22;74605;45.864;11.474;2024-03-02T01:47:33;7.20;83.60
78028;DHT22;74605;45.864;11.474;2024-03-02T01:49:59;7.10;83.30
78028;DHT22;74605;45.864;11.474;2024-03-02T01:52:26;7.10;83.40
78028;DHT22;74605;45.864;11.474;2024-03-02T01:54:52;7.10;83.50
78028;DHT22;74605;45.864;11.474;2024-03-02T01:57:19;7.20;83.40
78028;DHT22;74605;45.864;11.474;2024-03-02T01:59:46;7.20;83.40
78028;DHT22;74605;45.864;11.474;2024-03-02T02:02:16;7.10;83.40
78028;DHT22;74605;45.864;11.474;2024-03-02T02:04:42;7.30;83.30
78028;DHT22;74605;45.864;11.474;2024-03-02T02:07:09;7.10;83.20
78028;DHT22;74605;45.864;11.474;2024-03-02T02:09:35;7.10;83.50
78028;DHT22;74605;45.864;11.474;2024-03-02T02:12:01;7.20;83.30
78028;DHT22;74605;45.864;11.474;2024-03-02T02:14:28;7.20;83.50
78028;DHT22;74605;45.864;11.474;2024-03-02T02:16:54;7.20;83.60
78028;DHT22;74605;45.864;11.474;2024-03-02T02:19:20;7.30;83.30
78028;DHT22;74605;45.864;11.474;2024-03-02T02:21:46;7.30;83.40
78028;DHT22;74605;45.864;11.474;2024-03-02T02:24:12;7.10;83.30
78028;DHT22;74605;45.864;11.474;2024-03-02T02:26:39;7.20;83.40
78028;DHT22;74605;45.864;11.474;2024-03-02T02:29:05;7.00;83.50
78028;DHT22;74605;45.864;11.474;2024-03-02T02:31:41;7.00;83.30
78028;DHT22;74605;45.864;11.474;2024-03-02T02:34:07;7.10;83.40
78028;DHT22;74605;45.864;11.474;2024-03-02T02:36:39;7.10;83.30
78028;DHT22;74605;45.864;11.474;2024-03-02T02:39:09;7.30;83.40
78028;DHT22;74605;45.864;11.474;2024-03-02T02:41:36;7.40;83.30
78028;DHT22;74605;45.864;11.474;2024-03-02T02:44:02;7.40;83.10
78028;DHT22;74605;45.864;11.474;2024-03-02T02:46:28;7.60;83.20
78028;DHT22;74605;45.864;11.474;2024-03-02T02:48:54;7.60;82.70
78028;DHT22;74605;45.864;11.474;2024-03-02T02:51:20;7.70;82.90
78028;DHT22;74605;45.864;11.474;2024-03-02T02:53:45;7.70;82.60
78028;DHT22;74605;45.864;11.474;2024-03-02T02:56:11;7.70;82.70
78028;DHT22;74605;45.864;11.474;2024-03-02T02:58:39;7.60;82.60
78028;DHT22;74605;45.864;11.474;2024-03-02T03:01:05;7.60;82.60
78028;DHT22;74605;45.864;11.474;2024-03-02T03:03:31;7.60;82.60
78028;DHT22;74605;45.864;11.474;2024-03-02T03:05:57;7.60;82.60
78028;DHT22;74605;45.864;11.474;2024-03-02T03:08:23;7.60;82.70
78028;DHT22;74605;45.864;11.474;2024-03-02T03:10:50;7.40;82.60
78028;DHT22;74605;45.864;11.474;2024-03-02T03:13:16;7.40;83.00
78028;DHT22;74605;45.864;11.474;2024-03-02T03:15:42;7.40;82.80
78028;DHT22;74605;45.864;11.474;2024-03-02T03:18:08;7.30;83.00
78028;DHT22;74605;45.864;11.474;2024-03-02T03:20:38;7.40;83.10
78028;DHT22;74605;45.864;11.474;2024-03-02T03:23:04;7.30;83.20
78028;DHT22;74605;45.864;11.474;2024-03-02T03:25:30;7.50;83.00
78028;DHT22;74605;45.864;11.474;2024-03-02T03:27:56;7.40;82.70
78028;DHT22;74605;45.864;11.474;2024-03-02T03:30:23;7.50;82.70
78028;DHT22;74605;45.864;11.474;2024-03-02T03:32:48;7.40;82.70
78028;DHT22;74605;45.864;11.474;2024-03-02T03:35:14;7.50;82.50
78028;DHT22;74605;45.864;11.474;2024-03-02T03:37:41;7.60;82.60
78028;DHT22;74605;45.864;11.474;2024-03-02T03:40:08;7.40;82.40
78028;DHT22;74605;45.864;11.474;2024-03-02T03:42:37;7.30;82.60
78028;DHT22;74605;45.864;11.474;2024-03-02T03:45:04;7.30;82.30
78028;DHT22;74605;45.864;11.474;2024-03-02T03:47:31;7.30;82.50
78028;DHT22;74605;45.864;11.474;2024-03-02T03:49:57;7.30;82.50
78028;DHT22;74605;45.864;11.474;2024-03-02T03:52:23;7.30;82.60
78028;DHT22;74605;45.864;11.474;2024-03-02T03:54:50;7.20;82.60
78028;DHT22;74605;45.864;11.474;2024-03-02T03:57:16;7.30;82.40
78028;DHT22;74605;45.864;11.474;2024-03-02T03:59:43;7.30;82.40
78028;DHT22;74605;45.864;11.474;2024-03-02T04:02:09;7.30;82.50
78028;DHT22;74605;45.864;11.474;2024-03-02T04:04:37;7.50;82.50
78028;DHT22;74605;45.864;11.474;2024-03-02T04:07:03;7.50;82.40
78028;DHT22;74605;45.864;11.474;2024-03-02T04:09:29;7.60;82.40
78028;DHT22;74605;45.864;11.474;2024-03-02T04:11:55;7.50;82.10
78028;DHT22;74605;45.864;11.474;2024-03-02T04:14:20;7.40;82.00
78028;DHT22;74605;45.864;11.474;2024-03-02T04:16:46;7.50;82.00
78028;DHT22;74605;45.864;11.474;2024-03-02T04:19:12;7.50;82.00
78028;DHT22;74605;45.864;11.474;2024-03-02T04:21:38;7.60;82.00
78028;DHT22;74605;45.864;11.474;2024-03-02T04:24:04;7.70;82.00
78028;DHT22;74605;45.864;11.474;2024-03-02T04:26:30;7.50;82.10
78028;DHT22;74605;45.864;11.474;2024-03-02T04:28:56;7.60;81.90
78028;DHT22;74605;45.864;11.474;2024-03-02T04:31:22;7.50;81.90
78028;DHT22;74605;45.864;11.474;2024-03-02T04:33:48;7.40;81.90
78028;DHT22;74605;45.864;11.474;2024-03-02T04:36:14;7.50;82.20
78028;DHT22;74605;45.864;11.474;2024-03-02T04:38:40;7.40;81.90
78028;DHT22;74605;45.864;11.474;2024-03-02T04:41:07;7.20;82.40
78028;DHT22;74605;45.864;11.474;2024-03-02T04:43:33;7.40;82.50
78028;DHT22;74605;45.864;11.474;2024-03-02T04:46:00;7.50;82.20
78028;DHT22;74605;45.864;11.474;2024-03-02T04:48:26;7.60;82.40
78028;DHT22;74605;45.864;11.474;2024-03-02T04:50:52;7.50;82.30
78028;DHT22;74605;45.864;11.474;2024-03-02T04:53:18;7.50;82.20
78028;DHT22;74605;45.864;11.474;2024-03-02T04:55:44;7.60;82.40
78028;DHT22;74605;45.864;11.474;2024-03-02T04:58:10;7.50;82.30
78028;DHT22;74605;45.864;11.474;2024-03-02T05:00:36;7.40;82.10
78028;DHT22;74605;45.864;11.474;2024-03-02T05:03:03;7.50;82.20
78028;DHT22;74605;45.864;11.474;2024-03-02T05:05:28;7.50;82.30
78028;DHT22;74605;45.864;11.474;2024-03-02T05:07:55;7.70;82.10
78028;DHT22;74605;45.864;11.474;2024-03-02T05:10:20;7.60;81.90
78028;DHT22;74605;45.864;11.474;2024-03-02T05:12:46;7.60;82.00
78028;DHT22;74605;45.864;11.474;2024-03-02T05:15:23;7.60;82.00
78028;DHT22;74605;45.864;11.474;2024-03-02T05:17:49;7.70;82.00
78028;DHT22;74605;45.864;11.474;2024-03-02T05:20:15;7.40;81.90
78028;DHT22;74605;45.864;11.474;2024-03-02T05:22:40;7.30;82.00
78028;DHT22;74605;45.864;11.474;2024-03-02T05:25:07;7.40;82.20
78028;DHT22;74605;45.864;11.474;2024-03-02T05:27:33;7.30;82.20
78028;DHT22;74605;45.864;11.474;2024-03-02T05:29:59;7.30;82.40
78028;DHT22;74605;45.864;11.474;2024-03-02T05:32:25;7.20;82.50
78028;DHT22;74605;45.864;11.474;2024-03-02T05:34:51;7.50;82.40
78028;DHT22;74605;45.864;11.474;2024-03-02T05:37:17;7.50;82.20
78028;DHT22;74605;45.864;11.474;2024-03-02T05:39:43;7.40;82.30
78028;DHT22;74605;45.864;11.474;2024-03-02T05:42:09;7.40;82.00
78028;DHT22;74605;45.864;11.474;2024-03-02T05:44:38;7.10;82.20
78028;DHT22;74605;45.864;11.474;2024-03-02T05:47:04;7.10;82.80
78028;DHT22;74605;45.864;11.474;2024-03-02T05:49:30;7.10;83.00
78028;DHT22;74605;45.864;11.474;2024-03-02T05:51:57;7.10;83.20
78028;DHT22;74605;45.864;11.474;2024-03-02T05:54:23;7.50;83.00
78028;DHT22;74605;45.864;11.474;2024-03-02T05:56:49;7.30;82.60
78028;DHT22;74605;45.864;11.474;2024-03-02T05:59:15;7.30;82.70
78028;DHT22;74605;45.864;11.474;2024-03-02T06:01:42;7.40;82.90
78028;DHT22;74605;45.864;11.474;2024-03-02T06:04:11;7.40;82.40
78028;DHT22;74605;45.864;11.474;2024-03-02T06:06:38;7.20;82.70
78028;DHT22;74605;45.864;11.474;2024-03-02T06:09:05;7.30;83.30
78028;DHT22;74605;45.864;11.474;2024-03-02T06:11:36;7.00;83.10
78028;DHT22;74605;45.864;11.474;2024-03-02T06:14:07;7.00;83.80
78028;DHT22;74605;45.864;11.474;2024-03-02T06:16:33;7.10;83.90
78028;DHT22;74605;45.864;11.474;2024-03-02T06:18:59;7.20;83.80
78028;DHT22;74605;45.864;11.474;2024-03-02T06:21:27;7.20;83.20
78028;DHT22;74605;45.864;11.474;2024-03-02T06:23:54;6.90;83.70
78028;DHT22;74605;45.864;11.474;2024-03-02T06:26:20;7.00;83.90
78028;DHT22;74605;45.864;11.474;2024-03-02T06:28:46;7.10;84.10
78028;DHT22;74605;45.864;11.474;2024-03-02T06:31:12;7.30;83.90
78028;DHT22;74605;45.864;11.474;2024-03-02T06:33:38;7.30;83.70
78028;DHT22;74605;45.864;11.474;2024-03-02T06:36:05;7.30;83.10
78028;DHT22;74605;45.864;11.474;2024-03-02T06:38:34;7.50;83.90
78028;DHT22;74605;45.864;11.474;2024-03-02T06:41:00;7.40;83.70
78028;DHT22;74605;45.864;11.474;2024-03-02T06:43:26;7.50;83.40
78028;DHT22;74605;45.864;11.474;2024-03-02T06:45:52;7.60;83.30
78028;DHT22;74605;45.864;11.474;2024-03-02T06:48:19;7.40;82.60
78028;DHT22;74605;45.864;11.474;2024-03-02T06:50:49;7.30;83.10
78028;DHT22;74605;45.864;11.474;2024-03-02T06:53:16;7.40;83.20
78028;DHT22;74605;45.864;11.474;2024-03-02T06:55:46;7.60;83.50
78028;DHT22;74605;45.864;11.474;2024-03-02T06:58:15;7.90;83.20
78028;DHT22;74605;45.864;11.474;2024-03-02T07:00:42;7.80;82.80
78028;DHT22;74605;45.864;11.474;2024-03-02T07:03:08;7.90;82.80
78028;DHT22;74605;45.864;11.474;2024-03-02T07:05:34;7.80;83.10
78028;DHT22;74605;45.864;11.474;2024-03-02T07:07:59;7.70;82.70
78028;DHT22;74605;45.864;11.474;2024-03-02T07:10:27;7.80;82.70
78028;DHT22;74605;45.864;11.474;2024-03-02T07:12:52;7.70;83.00
78028;DHT22;74605;45.864;11.474;2024-03-02T07:15:19;7.60;83.20
78028;DHT22;74605;45.864;11.474;2024-03-02T07:18:03;7.90;83.40
78028;DHT22;74605;45.864;11.474;2024-03-02T07:20:29;7.90;83.10
78028;DHT22;74605;45.864;11.474;2024-03-02T07:22:55;7.80;83.10
78028;DHT22;74605;45.864;11.474;2024-03-02T07:25:21;7.90;82.80
78028;DHT22;74605;45.864;11.474;2024-03-02T07:27:47;7.90;82.70
78028;DHT22;74605;45.864;11.474;2024-03-02T07:30:16;7.70;82.70
78028;DHT22;74605;45.864;11.474;2024-03-02T07:32:42;8.00;82.80
78028;DHT22;74605;45.864;11.474;2024-03-02T07:35:12;7.90;82.80
78028;DHT22;74605;45.864;11.474;2024-03-02T07:37:38;7.90;83.00
78028;DHT22;74605;45.864;11.474;2024-03-02T07:40:05;7.90;83.30
78028;DHT22;74605;45.864;11.474;2024-03-02T07:42:31;8.00;83.40
78028;DHT22;74605;45.864;11.474;2024-03-02T07:44:56;7.80;83.90
78028;DHT22;74605;45.864;11.474;2024-03-02T07:47:22;7.70;84.00
78028;DHT22;74605;45.864;11.474;2024-03-02T07:49:48;7.80;83.70
78028;DHT22;74605;45.864;11.474;2024-03-02T07:52:14;7.90;83.50
78028;DHT22;74605;45.864;11.474;2024-03-02T07:54:40;7.90;83.60
78028;DHT22;74605;45.864;11.474;2024-03-02T07:57:06;7.90;83.60
78028;DHT22;74605;45.864;11.474;2024-03-02T07:59:32;7.80;83.80
78028;DHT22;74605;45.864;11.474;2024-03-02T08:01:58;8.00;83.80
78028;DHT22;74605;45.864;11.474;2024-03-02T08:04:24;7.90;84.30
78028;DHT22;74605;45.864;11.474;2024-03-02T08:06:50;8.00;84.00
78028;DHT22;74605;45.864;11.474;2024-03-02T08:09:16;8.20;83.90
78028;DHT22;74605;45.864;11.474;2024-03-02T08:11:41;8.20;83.70
78028;DHT22;74605;45.864;11.474;2024-03-02T08:14:07;7.90;83.70
78028;DHT22;74605;45.864;11.474;2024-03-02T08:16:33;8.10;84.30
78028;DHT22;74605;45.864;11.474;2024-03-02T08:18:59;8.20;83.70
78028;DHT22;74605;45.864;11.474;2024-03-02T08:21:26;8.20;83.50
78028;DHT22;74605;45.864;11.474;2024-03-02T08:23:51;8.20;83.00
78028;DHT22;74605;45.864;11.474;2024-03-02T08:26:17;8.30;82.90
78028;DHT22;74605;45.864;11.474;2024-03-02T08:28:43;8.40;82.80
78028;DHT22;74605;45.864;11.474;2024-03-02T08:31:09;8.50;82.70
78028;DHT22;74605;45.864;11.474;2024-03-02T08:33:35;8.50;82.80
78028;DHT22;74605;45.864;11.474;2024-03-02T08:36:01;8.50;82.50
78028;DHT22;74605;45.864;11.474;2024-03-02T08:38:28;8.60;81.50
78028;DHT22;74605;45.864;11.474;2024-03-02T08:40:54;8.30;82.10
78028;DHT22;74605;45.864;11.474;2024-03-02T08:43:20;8.50;82.00
78028;DHT22;74605;45.864;11.474;2024-03-02T08:45:48;8.50;81.90
78028;DHT22;74605;45.864;11.474;2024-03-02T08:48:14;8.40;81.50
78028;DHT22;74605;45.864;11.474;2024-03-02T08:50:40;8.50;81.80
78028;DHT22;74605;45.864;11.474;2024-03-02T08:53:06;8.60;81.40
78028;DHT22;74605;45.864;11.474;2024-03-02T08:55:32;8.60;81.90
78028;DHT22;74605;45.864;11.474;2024-03-02T08:57:57;8.80;81.60
78028;DHT22;74605;45.864;11.474;2024-03-02T09:00:24;8.60;81.40
78028;DHT22;74605;45.864;11.474;2024-03-02T09:02:50;8.60;81.10
78028;DHT22;74605;45.864;11.474;2024-03-02T09:05:16;8.60;81.00
78028;DHT22;74605;45.864;11.474;2024-03-02T09:07:42;8.60;80.90
78028;DHT22;74605;45.864;11.474;2024-03-02T09:10:08;8.60;81.30
78028;DHT22;74605;45.864;11.474;2024-03-02T09:12:35;8.50;81.20
78028;DHT22;74605;45.864;11.474;2024-03-02T09:15:02;8.80;81.20
78028;DHT22;74605;45.864;11.474;2024-03-02T09:17:29;8.70;80.40
78028;DHT22;74605;45.864;11.474;2024-03-02T09:19:55;9.00;80.60
78028;DHT22;74605;45.864;11.474;2024-03-02T09:22:21;8.90;80.30
78028;DHT22;74605;45.864;11.474;2024-03-02T09:24:47;9.00;80.30
78028;DHT22;74605;45.864;11.474;2024-03-02T09:27:13;9.10;80.50
78028;DHT22;74605;45.864;11.474;2024-03-02T09:29:38;9.10;80.30
78028;DHT22;74605;45.864;11.474;2024-03-02T09:32:11;9.00;80.50
78028;DHT22;74605;45.864;11.474;2024-03-02T09:34:37;9.10;80.50
78028;DHT22;74605;45.864;11.474;2024-03-02T09:37:03;9.10;80.00
78028;DHT22;74605;45.864;11.474;2024-03-02T09:39:30;9.00;80.00
78028;DHT22;74605;45.864;11.474;2024-03-02T09:41:56;9.10;79.70
78028;DHT22;74605;45.864;11.474;2024-03-02T09:44:23;9.50;81.00
78028;DHT22;74605;45.864;11.474;2024-03-02T09:46:51;9.50;80.30
78028;DHT22;74605;45.864;11.474;2024-03-02T09:49:17;9.30;80.00
78028;DHT22;74605;45.864;11.474;2024-03-02T09:51:49;9.30;80.20
78028;DHT22;74605;45.864;11.474;2024-03-02T09:54:18;9.40;79.80
78028;DHT22;74605;45.864;11.474;2024-03-02T09:56:44;9.10;79.20
78028;DHT22;74605;45.864;11.474;2024-03-02T09:59:11;8.90;80.20
78028;DHT22;74605;45.864;11.474;2024-03-02T10:01:37;9.00;79.50
78028;DHT22;74605;45.864;11.474;2024-03-02T10:04:05;8.80;80.60
78028;DHT22;74605;45.864;11.474;2024-03-02T10:06:31;8.60;80.40
78028;DHT22;74605;45.864;11.474;2024-03-02T10:08:57;9.00;80.80
78028;DHT22;74605;45.864;11.474;2024-03-02T10:11:27;9.10;80.50
78028;DHT22;74605;45.864;11.474;2024-03-02T10:16:44;9.20;79.50
78028;DHT22;74605;45.864;11.474;2024-03-02T10:19:23;9.20;79.20
78028;DHT22;74605;45.864;11.474;2024-03-02T10:21:54;9.30;80.10
78028;DHT22;74605;45.864;11.474;2024-03-02T10:24:21;9.20;79.70
78028;DHT22;74605;45.864;11.474;2024-03-02T10:26:48;9.30;80.20
78028;DHT22;74605;45.864;11.474;2024-03-02T10:29:14;9.20;79.90
78028;DHT22;74605;45.864;11.474;2024-03-02T10:31:41;9.20;79.50
78028;DHT22;74605;45.864;11.474;2024-03-02T10:34:08;9.40;79.70
78028;DHT22;74605;45.864;11.474;2024-03-02T10:36:35;9.50;79.10
78028;DHT22;74605;45.864;11.474;2024-03-02T10:39:03;9.50;79.00
78028;DHT22;74605;45.864;11.474;2024-03-02T10:41:35;9.40;79.40
78028;DHT22;74605;45.864;11.474;2024-03-02T10:44:05;9.70;79.50
78028;DHT22;74605;45.864;11.474;2024-03-02T10:46:33;9.40;79.30
78028;DHT22;74605;45.864;11.474;2024-03-02T10:49:02;9.50;79.20
78028;DHT22;74605;45.864;11.474;2024-03-02T10:51:31;9.70;79.60
78028;DHT22;74605;45.864;11.474;2024-03-02T10:53:58;9.70;79.80
78028;DHT22;74605;45.864;11.474;2024-03-02T10:56:38;9.70;79.30
78028;DHT22;74605;45.864;11.474;2024-03-02T10:59:33;9.70;79.40
78028;DHT22;74605;45.864;11.474;2024-03-02T11:02:01;9.90;80.60
78028;DHT22;74605;45.864;11.474;2024-03-02T11:04:29;9.80;79.40
78028;DHT22;74605;45.864;11.474;2024-03-02T11:07:06;9.70;79.90
78028;DHT22;74605;45.864;11.474;2024-03-02T11:09:46;9.60;79.20
78028;DHT22;74605;45.864;11.474;2024-03-02T11:12:36;9.50;79.30
78028;DHT22;74605;45.864;11.474;2024-03-02T11:15:09;9.50;79.10
78028;DHT22;74605;45.864;11.474;2024-03-02T11:17:36;9.70;79.70
78028;DHT22;74605;45.864;11.474;2024-03-02T11:20:03;9.50;79.00
78028;DHT22;74605;45.864;11.474;2024-03-02T11:22:30;9.70;79.50
78028;DHT22;74605;45.864;11.474;2024-03-02T11:24:56;9.60;79.20
78028;DHT22;74605;45.864;11.474;2024-03-02T11:33:05;9.70;79.60
78028;DHT22;74605;45.864;11.474;2024-03-02T11:35:35;9.60;79.60
78028;DHT22;74605;45.864;11.474;2024-03-02T11:38:02;9.60;79.70
78028;DHT22;74605;45.864;11.474;2024-03-02T11:40:29;9.20;79.70
78028;DHT22;74605;45.864;11.474;2024-03-02T11:43:04;9.20;80.40
78028;DHT22;74605;45.864;11.474;2024-03-02T11:45:31;9.40;80.60
78028;DHT22;74605;45.864;11.474;2024-03-02T11:47:59;9.40;80.70
78028;DHT22;74605;45.864;11.474;2024-03-02T11:50:47;9.30;80.40
78028;DHT22;74605;45.864;11.474;2024-03-02T11:53:14;9.50;80.70
78028;DHT22;74605;45.864;11.474;2024-03-02T11:55:41;9.50;80.70
78028;DHT22;74605;45.864;11.474;2024-03-02T11:58:15;9.60;80.10
78028;DHT22;74605;45.864;11.474;2024-03-02T12:00:56;9.60;80.50
78028;DHT22;74605;45.864;11.474;2024-03-02T12:03:24;9.50;80.20
78028;DHT22;74605;45.864;11.474;2024-03-02T12:05:51;9.50;80.90
78028;DHT22;74605;45.864;11.474;2024-03-02T12:08:18;9.60;81.70
78028;DHT22;74605;45.864;11.474;2024-03-02T12:10:57;10.60;81.20
78028;DHT22;74605;45.864;11.474;2024-03-02T12:13:23;10.00;79.60
78028;DHT22;74605;45.864;11.474;2024-03-02T12:15:56;9.90;79.40
78028;DHT22;74605;45.864;11.474;2024-03-02T12:18:22;9.70;79.40
78028;DHT22;74605;45.864;11.474;2024-03-02T12:20:49;9.80;79.70
78028;DHT22;74605;45.864;11.474;2024-03-02T12:23:18;9.80;79.70
78028;DHT22;74605;45.864;11.474;2024-03-02T12:25:45;9.80;79.60
78028;DHT22;74605;45.864;11.474;2024-03-02T12:28:11;9.60;79.80
78028;DHT22;74605;45.864;11.474;2024-03-02T12:30:37;9.70;80.70
78028;DHT22;74605;45.864;11.474;2024-03-02T12:33:03;9.80;81.30
78028;DHT22;74605;45.864;11.474;2024-03-02T12:35:30;9.90;80.80
78028;DHT22;74605;45.864;11.474;2024-03-02T12:37:56;9.90;80.70
78028;DHT22;74605;45.864;11.474;2024-03-02T12:40:22;9.90;81.90
78028;DHT22;74605;45.864;11.474;2024-03-02T12:42:48;9.90;81.50
78028;DHT22;74605;45.864;11.474;2024-03-02T12:45:15;9.80;81.60
78028;DHT22;74605;45.864;11.474;2024-03-02T12:47:42;9.70;80.80
78028;DHT22;74605;45.864;11.474;2024-03-02T12:50:09;9.80;80.60
78028;DHT22;74605;45.864;11.474;2024-03-02T12:52:35;9.90;80.00
78028;DHT22;74605;45.864;11.474;2024-03-02T12:55:03;9.80;79.70
78028;DHT22;74605;45.864;11.474;2024-03-02T12:57:31;9.70;79.70
78028;DHT22;74605;45.864;11.474;2024-03-02T13:00:01;9.50;79.60
78028;DHT22;74605;45.864;11.474;2024-03-02T13:02:35;9.70;80.30
78028;DHT22;74605;45.864;11.474;2024-03-02T13:05:01;9.50;79.50
78028;DHT22;74605;45.864;11.474;2024-03-02T13:07:28;9.50;80.20
78028;DHT22;74605;45.864;11.474;2024-03-02T13:09:56;9.50;79.90
78028;DHT22;74605;45.864;11.474;2024-03-02T13:12:23;9.80;80.60
78028;DHT22;74605;45.864;11.474;2024-03-02T13:14:52;9.90;81.10
78028;DHT22;74605;45.864;11.474;2024-03-02T13:17:20;9.80;79.50
78028;DHT22;74605;45.864;11.474;2024-03-02T13:19:56;9.40;79.60
78028;DHT22;74605;45.864;11.474;2024-03-02T13:22:22;9.50;79.90
78028;DHT22;74605;45.864;11.474;2024-03-02T13:24:49;9.70;80.30
78028;DHT22;74605;45.864;11.474;2024-03-02T13:27:16;9.80;80.40
78028;DHT22;74605;45.864;11.474;2024-03-02T13:29:46;9.70;80.30
78028;DHT22;74605;45.864;11.474;2024-03-02T13:32:14;9.40;79.50
78028;DHT22;74605;45.864;11.474;2024-03-02T13:34:40;9.10;80.20
78028;DHT22;74605;45.864;11.474;2024-03-02T13:37:06;9.10;80.60
78028;DHT22;74605;45.864;11.474;2024-03-02T13:39:32;9.00;80.00
78028;DHT22;74605;45.864;11.474;2024-03-02T13:42:01;8.90;80.80
78028;DHT22;74605;45.864;11.474;2024-03-02T13:44:32;9.20;80.90
78028;DHT22;74605;45.864;11.474;2024-03-02T13:47:02;9.30;80.70
78028;DHT22;74605;45.864;11.474;2024-03-02T13:49:28;9.40;80.50
78028;DHT22;74605;45.864;11.474;2024-03-02T13:52:05;9.60;80.40
78028;DHT22;74605;45.864;11.474;2024-03-02T13:54:43;9.70;80.20
78028;DHT22;74605;45.864;11.474;2024-03-02T13:57:11;9.40;79.70
78028;DHT22;74605;45.864;11.474;2024-03-02T13:59:38;9.40;79.90
78028;DHT22;74605;45.864;11.474;2024-03-02T14:02:08;9.70;80.20
78028;DHT22;74605;45.864;11.474;2024-03-02T14:04:34;9.70;80.20
78028;DHT22;74605;45.864;11.474;2024-03-02T14:07:02;9.80;80.00
78028;DHT22;74605;45.864;11.474;2024-03-02T14:09:28;9.80;79.70
78028;DHT22;74605;45.864;11.474;2024-03-02T14:11:54;9.80;80.00
78028;DHT22;74605;45.864;11.474;2024-03-02T14:14:21;9.70;80.40
78028;DHT22;74605;45.864;11.474;2024-03-02T14:16:47;9.70;79.80
78028;DHT22;74605;45.864;11.474;2024-03-02T14:19:13;9.80;79.60
78028;DHT22;74605;45.864;11.474;2024-03-02T14:21:40;9.90;79.10
78028;DHT22;74605;45.864;11.474;2024-03-02T14:24:06;9.80;79.20
78028;DHT22;74605;45.864;11.474;2024-03-02T14:26:35;9.70;78.90
78028;DHT22;74605;45.864;11.474;2024-03-02T14:29:02;9.50;79.20
78028;DHT22;74605;45.864;11.474;2024-03-02T14:31:29;9.60;79.70
78028;DHT22;74605;45.864;11.474;2024-03-02T14:33:55;9.70;79.90
78028;DHT22;74605;45.864;11.474;2024-03-02T14:36:21;9.60;79.20
78028;DHT22;74605;45.864;11.474;2024-03-02T14:38:47;9.40;79.50
78028;DHT22;74605;45.864;11.474;2024-03-02T14:41:14;9.60;80.40
78028;DHT22;74605;45.864;11.474;2024-03-02T14:43:40;9.70;80.30
78028;DHT22;74605;45.864;11.474;2024-03-02T14:46:06;9.70;80.80
78028;DHT22;74605;45.864;11.474;2024-03-02T14:48:38;9.70;80.70
78028;DHT22;74605;45.864;11.474;2024-03-02T14:51:04;9.70;80.10
78028;DHT22;74605;45.864;11.474;2024-03-02T14:53:30;9.50;79.90
78028;DHT22;74605;45.864;11.474;2024-03-02T14:55:56;9.20;80.10
78028;DHT22;74605;45.864;11.474;2024-03-02T14:58:23;9.30;80.70
78028;DHT22;74605;45.864;11.474;2024-03-02T15:00:49;9.20;80.70
78028;DHT22;74605;45.864;11.474;2024-03-02T15:03:15;9.20;80.60
78028;DHT22;74605;45.864;11.474;2024-03-02T15:05:41;9.20;80.70
78028;DHT22;74605;45.864;11.474;2024-03-02T15:08:07;9.30;81.10
78028;DHT22;74605;45.864;11.474;2024-03-02T15:10:33;9.30;82.60
78028;DHT22;74605;45.864;11.474;2024-03-02T15:12:59;9.60;82.40
78028;DHT22;74605;45.864;11.474;2024-03-02T15:15:25;9.70;83.40
78028;DHT22;74605;45.864;11.474;2024-03-02T15:17:51;9.80;82.40
78028;DHT22;74605;45.864;11.474;2024-03-02T15:20:18;9.60;82.30
78028;DHT22;74605;45.864;11.474;2024-03-02T15:22:46;9.50;82.70
78028;DHT22;74605;45.864;11.474;2024-03-02T15:25:12;9.50;82.50
78028;DHT22;74605;45.864;11.474;2024-03-02T15:27:39;9.30;82.60
78028;DHT22;74605;45.864;11.474;2024-03-02T15:30:06;9.20;82.90
78028;DHT22;74605;45.864;11.474;2024-03-02T15:45:34;8.30;84.90
78028;DHT22;74605;45.864;11.474;2024-03-02T15:48:00;9.30;84.00
78028;DHT22;74605;45.864;11.474;2024-03-02T15:50:29;9.20;83.10
78028;DHT22;74605;45.864;11.474;2024-03-02T15:52:55;9.00;83.60
78028;DHT22;74605;45.864;11.474;2024-03-02T15:55:23;8.80;83.10